Terminal Aerodrome Forecast
Issued by NWS

Home | Current Version | Previous Version | Text Only | Print | Product List | Glossary On
Versions: 1 2 3 4 5 6 7 8 9 10 11 12 13 14 15 16 17 18
000
FTUS44 KMAF 012300
TAFHOB
TAF
KHOB 012321Z 0200/0224 23009KT P6SM SKC
     FM021300 30011G17KT P6SM SKC
     FM021500 34015G20KT P6SM SKC
     FM022200 33008KT P6SM SKC=

USA.gov is the U.S. government's official web portal to all federal, state and local government web resources and services.